createdAt,value
2019-03-09T00:00:40.634Z,0.00
2019-03-09T00:02:33.532Z,0.00
2019-03-09T00:03:33.543Z,0.00
2019-03-09T00:05:26.448Z,0.00
2019-03-09T00:06:26.449Z,0.00
2019-03-09T00:08:19.354Z,0.00
2019-03-09T00:09:19.363Z,0.00
2019-03-09T00:11:12.271Z,0.00
2019-03-09T00:12:12.272Z,0.00
2019-03-09T00:14:05.174Z,0.00
2019-03-09T00:15:05.181Z,0.00
2019-03-09T00:16:58.088Z,0.00
2019-03-09T00:17:58.092Z,0.00
2019-03-09T00:19:50.998Z,0.00
2019-03-09T00:20:51.001Z,0.00
2019-03-09T00:22:43.901Z,0.00
2019-03-09T00:23:43.913Z,0.00
2019-03-09T00:25:36.818Z,0.00
2019-03-09T00:26:36.822Z,0.00
2019-03-09T00:28:29.726Z,0.00
2019-03-09T00:29:29.739Z,0.00
2019-03-09T00:31:22.644Z,0.00
2019-03-09T00:32:22.646Z,0.00
2019-03-09T00:34:15.547Z,0.00
2019-03-09T00:35:15.558Z,0.00
2019-03-09T00:37:08.465Z,0.00
2019-03-09T00:38:08.467Z,0.00
2019-03-09T00:40:01.378Z,0.00
2019-03-09T00:41:01.380Z,0.00
2019-03-09T00:42:54.282Z,0.00
2019-03-09T00:43:54.293Z,0.00
2019-03-09T00:45:48.229Z,0.00
2019-03-09T00:46:48.235Z,0.00
2019-03-09T00:48:41.133Z,0.00
2019-03-09T00:49:41.148Z,0.00
2019-03-09T00:51:34.050Z,0.00
2019-03-09T00:52:34.052Z,0.00
2019-03-09T00:54:26.952Z,0.00
2019-03-09T00:55:26.963Z,0.00
2019-03-09T00:57:19.870Z,0.00
2019-03-09T00:58:19.874Z,0.00
2019-03-09T01:00:12.781Z,0.00
2019-03-09T01:01:12.785Z,0.00
2019-03-09T01:03:05.682Z,0.00
2019-03-09T01:04:05.693Z,0.00
2019-03-09T01:05:58.600Z,0.00
2019-03-09T01:06:58.604Z,0.00
2019-03-09T01:08:51.502Z,0.00
2019-03-09T01:09:51.517Z,0.00
2019-03-09T01:11:44.422Z,0.00
2019-03-09T01:12:44.424Z,0.00
2019-03-09T01:14:37.321Z,0.00
2019-03-09T01:15:37.337Z,0.00
2019-03-09T01:17:30.239Z,0.00
2019-03-09T01:18:30.244Z,0.00
2019-03-09T01:20:23.150Z,0.00
2019-03-09T01:21:23.155Z,0.00
2019-03-09T01:23:17.047Z,0.00
2019-03-09T01:24:17.060Z,0.00
2019-03-09T01:26:09.966Z,0.00
2019-03-09T01:27:09.996Z,0.00
2019-03-09T01:29:02.878Z,0.00
2019-03-09T01:30:02.880Z,0.00
2019-03-09T01:31:55.787Z,0.00
2019-03-09T01:32:55.838Z,0.00
2019-03-09T01:34:48.699Z,0.00
2019-03-09T01:35:48.700Z,0.00
2019-03-09T01:37:41.608Z,0.00
2019-03-09T01:38:41.611Z,0.00
2019-03-09T01:40:34.517Z,0.00
2019-03-09T01:41:34.521Z,0.00
2019-03-09T01:43:27.421Z,0.00
2019-03-09T01:44:27.434Z,0.00
2019-03-09T01:46:20.341Z,0.00
2019-03-09T01:47:20.344Z,0.00
2019-03-09T01:49:13.241Z,0.00
2019-03-09T01:50:13.253Z,0.00
2019-03-09T01:52:06.171Z,0.00
2019-03-09T01:53:06.163Z,0.00
2019-03-09T01:54:59.062Z,0.00
2019-03-09T01:55:59.075Z,0.00
2019-03-09T01:57:51.978Z,0.00
2019-03-09T01:58:51.982Z,0.00
2019-03-09T02:00:44.887Z,0.00
2019-03-09T02:01:44.890Z,0.00
2019-03-09T02:03:37.789Z,0.00
2019-03-09T02:04:37.801Z,0.00
2019-03-09T02:06:30.707Z,0.00
2019-03-09T02:07:30.709Z,0.00
2019-03-09T02:09:23.608Z,0.00
2019-03-09T02:10:23.619Z,0.00
2019-03-09T02:12:16.525Z,0.00
2019-03-09T02:13:16.528Z,0.00
2019-03-09T02:15:09.428Z,0.00
2019-03-09T02:16:09.438Z,0.00
2019-03-09T02:18:02.345Z,0.00
2019-03-09T02:19:02.349Z,0.00
2019-03-09T02:20:55.256Z,0.00
2019-03-09T02:21:55.259Z,0.00
2019-03-09T02:23:48.159Z,0.00
2019-03-09T02:24:48.170Z,0.00
2019-03-09T02:26:41.075Z,0.00
2019-03-09T02:27:41.083Z,0.00
2019-03-09T02:29:33.978Z,0.00
2019-03-09T02:30:33.989Z,0.00
2019-03-09T02:32:26.908Z,0.00
2019-03-09T02:33:26.900Z,0.00
2019-03-09T02:35:19.797Z,0.00
2019-03-09T02:36:19.812Z,0.00
2019-03-09T02:38:12.711Z,0.00
2019-03-09T02:39:12.721Z,0.00
2019-03-09T02:41:05.649Z,0.00
2019-03-09T02:42:05.650Z,0.00
2019-03-09T02:43:58.549Z,0.00
2019-03-09T02:44:58.558Z,0.00
2019-03-09T02:46:51.468Z,0.00
2019-03-09T02:47:51.474Z,0.00
2019-03-09T02:49:44.372Z,0.00
2019-03-09T02:50:44.381Z,0.00
2019-03-09T02:52:37.294Z,0.00
2019-03-09T02:53:37.302Z,0.00
2019-03-09T02:55:30.192Z,0.00
2019-03-09T02:56:30.203Z,0.00
2019-03-09T02:58:23.107Z,0.00
2019-03-09T02:59:23.112Z,0.00
2019-03-09T03:01:16.016Z,0.00
2019-03-09T03:02:16.021Z,0.00
2019-03-09T03:04:08.920Z,0.00
2019-03-09T03:05:08.931Z,0.00
2019-03-09T03:07:01.837Z,0.00
2019-03-09T03:08:01.843Z,0.00
2019-03-09T03:09:54.738Z,0.00
2019-03-09T03:10:54.751Z,0.00
2019-03-09T03:12:47.658Z,0.00
2019-03-09T03:13:47.659Z,0.00
2019-03-09T03:15:40.556Z,0.00
2019-03-09T03:16:40.567Z,0.00
2019-03-09T03:18:33.475Z,0.00
2019-03-09T03:19:33.478Z,0.00
2019-03-09T03:21:26.384Z,0.00
2019-03-09T03:22:26.388Z,0.00
2019-03-09T03:24:19.287Z,0.00
2019-03-09T03:25:19.302Z,0.00
2019-03-09T03:27:12.206Z,0.00
2019-03-09T03:28:12.208Z,0.00
2019-03-09T03:30:05.112Z,0.00
2019-03-09T03:31:05.119Z,0.00
2019-03-09T03:32:58.027Z,0.00
2019-03-09T03:33:58.032Z,0.00
2019-03-09T03:35:50.930Z,0.00
2019-03-09T03:36:50.940Z,0.00
2019-03-09T03:38:43.844Z,0.00
2019-03-09T03:39:43.849Z,0.00
2019-03-09T03:41:36.759Z,0.00
2019-03-09T03:42:36.763Z,0.00
2019-03-09T03:44:29.662Z,0.00
2019-03-09T03:45:29.671Z,0.00
2019-03-09T03:47:22.583Z,0.00
2019-03-09T03:48:22.585Z,0.00
2019-03-09T03:50:15.480Z,0.00
2019-03-09T03:51:15.491Z,0.00
2019-03-09T03:53:08.400Z,0.00
2019-03-09T03:54:08.401Z,0.00
2019-03-09T03:56:01.301Z,0.00
2019-03-09T03:57:01.311Z,0.00
2019-03-09T03:58:54.217Z,0.00
2019-03-09T03:59:54.220Z,0.00
2019-03-09T04:01:47.124Z,0.00
2019-03-09T04:02:47.127Z,0.00
2019-03-09T04:04:40.026Z,0.00
2019-03-09T04:05:40.036Z,0.00
2019-03-09T04:07:32.946Z,0.00
2019-03-09T04:08:32.951Z,0.00
2019-03-09T04:10:25.850Z,0.00
2019-03-09T04:11:25.867Z,0.00
2019-03-09T04:13:18.766Z,0.00
2019-03-09T04:14:18.772Z,0.00
2019-03-09T04:16:11.671Z,0.00
2019-03-09T04:17:11.681Z,0.00
2019-03-09T04:19:04.586Z,0.00
2019-03-09T04:20:04.599Z,0.00
2019-03-09T04:21:57.504Z,0.00
2019-03-09T04:22:57.509Z,0.00
2019-03-09T04:24:50.402Z,0.00
2019-03-09T04:25:50.415Z,0.00
2019-03-09T04:27:43.346Z,0.00
2019-03-09T04:28:43.347Z,0.00
2019-03-09T04:30:36.227Z,0.00
2019-03-09T04:31:36.239Z,0.00
2019-03-09T04:33:29.188Z,0.00
2019-03-09T04:34:29.151Z,0.00
2019-03-09T04:36:22.047Z,0.00
2019-03-09T04:37:22.058Z,0.00
2019-03-09T04:39:14.965Z,0.00
2019-03-09T04:40:14.968Z,0.00
2019-03-09T04:42:07.876Z,0.00
2019-03-09T04:43:07.880Z,0.00
2019-03-09T04:45:00.779Z,0.00
2019-03-09T04:46:00.798Z,0.00
2019-03-09T04:47:53.696Z,0.00
2019-03-09T04:48:53.702Z,0.00
2019-03-09T04:50:46.599Z,0.00
2019-03-09T04:51:46.611Z,0.00
2019-03-09T04:53:39.517Z,0.00
2019-03-09T04:54:39.520Z,0.00
2019-03-09T04:56:32.418Z,0.00
2019-03-09T04:57:32.429Z,0.00
2019-03-09T04:59:25.334Z,0.00
2019-03-09T05:00:25.338Z,0.00
2019-03-09T05:02:18.245Z,0.00
2019-03-09T05:03:18.248Z,0.00
2019-03-09T05:05:11.148Z,0.00
2019-03-09T05:06:11.161Z,0.00
2019-03-09T05:08:04.072Z,0.00
2019-03-09T05:09:04.071Z,0.00
2019-03-09T05:10:56.980Z,0.00
2019-03-09T05:11:56.980Z,0.00
2019-03-09T05:13:49.887Z,0.00
2019-03-09T05:14:49.891Z,0.00
2019-03-09T05:16:42.791Z,0.00
2019-03-09T05:17:42.803Z,0.00
2019-03-09T05:19:35.708Z,0.00
2019-03-09T05:20:35.713Z,0.00
2019-03-09T05:22:28.620Z,0.00
2019-03-09T05:23:28.624Z,0.00
2019-03-09T05:25:21.524Z,0.00
2019-03-09T05:26:21.536Z,0.00
2019-03-09T05:28:14.444Z,4.00
2019-03-09T05:29:14.450Z,4.00
2019-03-09T05:31:07.350Z,4.00
2019-03-09T05:32:07.358Z,8.00
2019-03-09T05:34:00.269Z,4.00
2019-03-09T05:35:00.349Z,8.00
2019-03-09T05:36:53.173Z,8.00
2019-03-09T05:37:53.194Z,16.00
2019-03-09T05:39:46.089Z,16.00
2019-03-09T05:40:46.093Z,20.00
2019-03-09T05:42:38.997Z,28.00
2019-03-09T05:43:39.002Z,32.00
2019-03-09T05:45:31.899Z,56.00
2019-03-09T05:46:31.911Z,68.00
2019-03-09T05:48:24.820Z,80.00
2019-03-09T05:49:24.822Z,80.00
2019-03-09T05:51:17.720Z,108.00
2019-03-09T05:52:17.730Z,132.00
2019-03-09T05:54:10.638Z,176.00
2019-03-09T05:55:10.674Z,184.00
2019-03-09T05:57:03.548Z,220.00
2019-03-09T05:58:03.550Z,220.00
2019-03-09T05:59:56.457Z,260.00
2019-03-09T06:00:56.461Z,304.00
2019-03-09T06:02:49.367Z,356.00
2019-03-09T06:03:49.371Z,384.00
2019-03-09T06:05:42.271Z,432.00
2019-03-09T06:06:42.282Z,472.00
2019-03-09T06:08:35.189Z,564.00
2019-03-09T06:09:35.192Z,576.00
2019-03-09T06:11:28.092Z,640.00
2019-03-09T06:12:28.103Z,704.00
2019-03-09T06:14:21.013Z,780.00
2019-03-09T06:15:21.018Z,836.00
2019-03-09T06:17:13.916Z,796.00
2019-03-09T06:18:13.927Z,860.00
2019-03-09T06:20:06.834Z,1104.00
2019-03-09T06:21:06.837Z,1116.00
2019-03-09T06:22:59.745Z,1360.00
2019-03-09T06:23:59.749Z,1448.00
2019-03-09T06:25:52.650Z,1588.00
2019-03-09T06:26:52.662Z,1648.00
2019-03-09T06:28:45.566Z,1852.00
2019-03-09T06:29:45.569Z,1800.00
2019-03-09T06:31:38.469Z,2364.00
2019-03-09T06:32:38.479Z,2752.00
2019-03-09T06:34:31.386Z,2464.00
2019-03-09T06:35:31.391Z,2176.00
2019-03-09T06:37:24.291Z,2380.00
2019-03-09T06:38:24.303Z,2572.00
2019-03-09T06:40:17.206Z,3252.00
2019-03-09T06:41:17.212Z,3208.00
2019-03-09T06:43:10.121Z,3648.00
2019-03-09T06:44:10.124Z,3724.00
2019-03-09T06:46:03.024Z,3472.00
2019-03-09T06:47:03.038Z,3320.00
2019-03-09T06:48:55.944Z,3880.00
2019-03-09T06:49:55.949Z,3836.00
2019-03-09T06:51:48.849Z,3624.00
2019-03-09T06:52:48.862Z,3012.00
2019-03-09T06:54:41.770Z,2740.00
2019-03-09T06:55:41.783Z,2708.00
2019-03-09T06:57:34.677Z,2696.00
2019-03-09T06:58:34.691Z,2688.00
2019-03-09T07:00:27.598Z,2684.00
2019-03-09T07:01:27.602Z,2696.00
2019-03-09T07:03:20.509Z,2816.00
2019-03-09T07:04:20.514Z,3088.00
2019-03-09T07:06:13.416Z,3140.00
2019-03-09T07:07:13.428Z,3280.00
2019-03-09T07:09:06.335Z,3304.00
2019-03-09T07:10:06.338Z,3248.00
2019-03-09T07:11:59.239Z,3248.00
2019-03-09T07:12:59.251Z,3300.00
2019-03-09T07:14:52.157Z,3428.00
2019-03-09T07:15:52.167Z,3520.00
2019-03-09T07:17:45.063Z,3936.00
2019-03-09T07:18:45.076Z,4384.00
2019-03-09T07:20:37.985Z,4448.00
2019-03-09T07:21:37.993Z,4308.00
2019-03-09T07:23:30.902Z,4016.00
2019-03-09T07:24:30.902Z,3708.00
2019-03-09T07:26:23.823Z,3124.00
2019-03-09T07:27:23.833Z,2956.00
2019-03-09T07:29:16.727Z,2880.00
2019-03-09T07:30:16.731Z,2996.00
2019-03-09T07:32:09.631Z,3152.00
2019-03-09T07:33:09.643Z,3176.00
2019-03-09T07:35:03.046Z,3472.00
2019-03-09T07:36:03.050Z,3892.00
2019-03-09T07:37:55.953Z,4360.00
2019-03-09T07:38:55.963Z,4496.00
2019-03-09T07:40:48.872Z,4268.00
2019-03-09T07:41:48.878Z,4248.00
2019-03-09T07:43:41.787Z,4148.00
2019-03-09T07:44:41.792Z,4204.00
2019-03-09T07:46:34.693Z,4212.00
2019-03-09T07:47:34.706Z,4488.00
2019-03-09T07:49:27.615Z,6384.00
2019-03-09T07:50:27.620Z,6672.00
2019-03-09T07:52:20.522Z,5976.00
2019-03-09T07:53:20.534Z,5896.00
2019-03-09T07:55:13.447Z,5888.00
2019-03-09T07:56:13.448Z,5476.00
2019-03-09T07:58:06.354Z,5212.00
2019-03-09T07:59:06.363Z,6416.00
2019-03-09T08:00:59.273Z,6908.00
2019-03-09T08:01:59.279Z,6528.00
2019-03-09T08:03:52.189Z,4536.00
2019-03-09T08:04:52.194Z,3036.00
2019-03-09T08:06:45.237Z,3216.00
2019-03-09T08:07:45.114Z,4120.00
2019-03-09T08:09:38.020Z,4048.00
2019-03-09T08:10:38.026Z,5168.00
2019-03-09T08:12:30.942Z,5180.00
2019-03-09T08:13:30.943Z,4976.00
2019-03-09T08:15:23.849Z,4444.00
2019-03-09T08:16:23.856Z,4384.00
2019-03-09T08:18:16.763Z,3140.00
2019-03-09T08:19:16.771Z,2464.00
2019-03-09T08:21:09.692Z,2336.00
2019-03-09T08:22:09.698Z,3484.00
2019-03-09T08:24:02.596Z,4056.00
2019-03-09T08:25:02.605Z,2980.00
2019-03-09T08:26:55.504Z,2920.00
2019-03-09T08:27:55.517Z,3552.00
2019-03-09T08:29:48.435Z,3788.00
2019-03-09T08:30:48.432Z,3524.00
2019-03-09T08:32:41.331Z,4744.00
2019-03-09T08:33:41.345Z,5140.00
2019-03-09T08:35:34.254Z,4548.00
2019-03-09T08:36:35.111Z,5112.00
2019-03-09T08:38:27.165Z,4556.00
2019-03-09T08:39:27.187Z,3768.00
2019-03-09T08:41:20.096Z,5000.00
2019-03-09T08:42:20.092Z,4544.00
2019-03-09T08:44:13.007Z,4488.00
2019-03-09T08:45:13.041Z,4052.00
2019-03-09T08:47:05.918Z,4792.00
2019-03-09T08:48:05.938Z,4992.00
2019-03-09T08:49:58.841Z,5164.00
2019-03-09T08:50:58.848Z,4720.00
2019-03-09T08:52:51.790Z,4236.00
2019-03-09T08:53:51.782Z,2976.00
2019-03-09T08:55:44.711Z,3340.00
2019-03-09T08:56:44.689Z,3484.00
2019-03-09T08:58:37.603Z,4276.00
2019-03-09T08:59:37.603Z,4716.00
2019-03-09T09:01:30.506Z,5480.00
2019-03-09T09:02:30.512Z,5488.00
2019-03-09T09:04:23.421Z,6560.00
2019-03-09T09:05:23.432Z,7968.00
2019-03-09T09:07:16.338Z,7488.00
2019-03-09T09:08:16.347Z,6060.00
2019-03-09T09:10:09.258Z,4416.00
2019-03-09T09:11:09.264Z,3996.00
2019-03-09T09:13:02.167Z,5452.00
2019-03-09T09:14:02.182Z,5656.00
2019-03-09T09:15:55.093Z,5180.00
2019-03-09T09:16:55.098Z,5684.00
2019-03-09T09:18:48.006Z,6712.00
2019-03-09T09:19:48.017Z,5468.00
2019-03-09T09:21:40.937Z,6944.00
2019-03-09T09:22:40.939Z,4932.00
2019-03-09T09:24:33.851Z,4404.00
2019-03-09T09:25:33.857Z,5856.00
2019-03-09T09:27:26.764Z,5044.00
2019-03-09T09:28:26.776Z,5388.00
2019-03-09T09:30:19.692Z,5116.00
2019-03-09T09:31:19.713Z,6384.00
2019-03-09T09:33:12.601Z,8316.00
2019-03-09T09:34:12.614Z,8588.00
2019-03-09T09:36:05.554Z,5376.00
2019-03-09T09:37:05.534Z,6844.00
2019-03-09T09:38:58.440Z,6136.00
2019-03-09T09:39:58.455Z,5940.00
2019-03-09T09:41:51.367Z,7008.00
2019-03-09T09:42:51.374Z,5128.00
2019-03-09T09:44:44.308Z,4364.00
2019-03-09T09:45:44.297Z,7604.00
2019-03-09T09:47:37.200Z,9332.00
2019-03-09T09:48:37.216Z,7088.00
2019-03-09T09:50:30.623Z,7292.00
2019-03-09T09:51:30.628Z,7212.00
2019-03-09T09:53:23.681Z,3416.00
2019-03-09T09:54:23.548Z,4540.00
2019-03-09T09:56:16.461Z,6956.00
2019-03-09T09:57:16.466Z,6000.00
2019-03-09T09:59:09.374Z,3688.00
2019-03-09T10:00:09.387Z,3216.00
2019-03-09T10:02:02.302Z,5144.00
2019-03-09T10:03:02.306Z,8544.00
2019-03-09T10:04:55.223Z,11992.00
2019-03-09T10:05:55.229Z,10808.00
2019-03-09T10:07:48.136Z,7148.00
2019-03-09T10:08:48.146Z,4896.00
2019-03-09T10:10:41.123Z,3076.00
2019-03-09T10:11:41.064Z,2728.00
2019-03-09T10:13:33.971Z,3028.00
2019-03-09T10:14:33.986Z,6272.00
2019-03-09T10:16:26.896Z,8252.00
2019-03-09T10:17:26.903Z,9032.00
2019-03-09T10:19:19.806Z,6388.00
2019-03-09T10:20:19.820Z,5108.00
2019-03-09T10:22:12.766Z,6024.00
2019-03-09T10:23:12.775Z,6840.00
2019-03-09T10:25:05.687Z,8308.00
2019-03-09T10:26:05.738Z,8916.00
2019-03-09T10:27:58.596Z,7008.00
2019-03-09T10:28:58.608Z,6496.00
2019-03-09T10:30:51.521Z,8304.00
2019-03-09T10:31:51.536Z,7312.00
2019-03-09T10:33:44.540Z,8276.00
2019-03-09T10:34:44.450Z,7748.00
2019-03-09T10:36:37.396Z,7072.00
2019-03-09T10:37:37.406Z,6688.00
2019-03-09T10:39:30.311Z,8688.00
2019-03-09T10:40:30.325Z,9124.00
2019-03-09T10:42:23.262Z,9616.00
2019-03-09T10:43:23.243Z,10004.00
2019-03-09T10:45:16.158Z,10344.00
2019-03-09T10:46:16.166Z,10596.00
2019-03-09T10:48:09.072Z,10752.00
2019-03-09T10:49:09.087Z,11036.00
2019-03-09T10:51:01.999Z,11232.00
2019-03-09T10:52:02.006Z,10924.00
2019-03-09T10:53:54.921Z,10564.00
2019-03-09T10:54:54.937Z,10012.00
2019-03-09T10:56:48.644Z,9508.00
2019-03-09T10:57:48.655Z,9328.00
2019-03-09T10:59:41.562Z,8508.00
2019-03-09T11:00:41.575Z,8212.00
2019-03-09T11:02:34.502Z,7708.00
2019-03-09T11:03:34.499Z,7700.00
2019-03-09T11:05:27.422Z,7896.00
2019-03-09T11:06:27.422Z,7684.00
2019-03-09T11:08:20.329Z,8320.00
2019-03-09T11:09:20.346Z,8668.00
2019-03-09T11:11:13.287Z,8996.00
2019-03-09T11:12:13.270Z,8584.00
2019-03-09T11:14:06.191Z,9268.00
2019-03-09T11:15:06.193Z,9256.00
2019-03-09T11:16:59.108Z,9228.00
2019-03-09T11:17:59.146Z,8976.00
2019-03-09T11:19:52.060Z,8932.00
2019-03-09T11:20:52.079Z,7932.00
2019-03-09T11:22:45.006Z,6504.00
2019-03-09T11:23:45.101Z,7588.00
2019-03-09T11:25:37.946Z,7624.00
2019-03-09T11:26:37.940Z,6208.00
2019-03-09T11:28:30.850Z,6004.00
2019-03-09T11:29:30.863Z,7028.00
2019-03-09T11:31:23.785Z,6664.00
2019-03-09T11:32:23.817Z,7028.00
2019-03-09T11:34:16.701Z,7992.00
2019-03-09T11:35:16.714Z,8532.00
2019-03-09T11:37:09.629Z,9676.00
2019-03-09T11:38:09.638Z,10160.00
2019-03-09T11:40:02.542Z,9836.00
2019-03-09T11:41:02.564Z,8996.00
2019-03-09T11:42:55.474Z,7700.00
2019-03-09T11:43:55.482Z,7124.00
2019-03-09T11:45:48.390Z,6688.00
2019-03-09T11:46:48.421Z,6564.00
2019-03-09T11:48:41.331Z,6752.00
2019-03-09T11:49:41.381Z,6804.00
2019-03-09T11:51:34.243Z,7164.00
2019-03-09T11:52:34.252Z,6524.00
2019-03-09T11:54:27.165Z,6480.00
2019-03-09T11:55:27.176Z,6972.00
2019-03-09T11:57:20.092Z,7608.00
2019-03-09T11:58:20.166Z,7900.00
2019-03-09T12:00:13.027Z,8976.00
2019-03-09T12:01:13.028Z,9676.00
2019-03-09T12:03:05.956Z,10368.00
2019-03-09T12:04:05.948Z,10624.00
2019-03-09T12:05:58.855Z,11464.00
2019-03-09T12:06:58.929Z,10180.00
2019-03-09T12:08:51.785Z,7452.00
2019-03-09T12:09:51.794Z,7116.00
2019-03-09T12:11:44.736Z,7868.00
2019-03-09T12:12:44.752Z,8568.00
2019-03-09T12:14:37.655Z,7508.00
2019-03-09T12:15:37.671Z,7596.00
2019-03-09T12:17:30.585Z,6636.00
2019-03-09T12:18:30.599Z,7040.00
2019-03-09T12:20:23.527Z,8652.00
2019-03-09T12:21:23.538Z,9000.00
2019-03-09T12:23:16.451Z,8668.00
2019-03-09T12:24:19.873Z,7932.00
2019-03-09T12:26:09.371Z,4276.00
2019-03-09T12:27:09.384Z,3696.00
2019-03-09T12:29:02.297Z,4752.00
2019-03-09T12:30:03.927Z,3212.00
2019-03-09T12:31:56.231Z,6720.00
2019-03-09T12:32:56.240Z,9440.00
2019-03-09T12:34:49.153Z,15792.00
2019-03-09T12:35:49.162Z,14516.00
2019-03-09T12:37:42.081Z,11760.00
2019-03-09T12:38:42.086Z,14808.00
2019-03-09T12:40:35.009Z,15920.00
2019-03-09T12:41:35.030Z,13968.00
2019-03-09T12:43:27.940Z,9116.00
2019-03-09T12:44:27.951Z,7340.00
2019-03-09T12:46:20.859Z,7100.00
2019-03-09T12:47:20.876Z,7504.00
2019-03-09T12:49:13.800Z,8944.00
2019-03-09T12:50:13.803Z,8232.00
2019-03-09T12:52:06.721Z,8228.00
2019-03-09T12:53:06.729Z,8552.00
2019-03-09T12:54:59.635Z,8708.00
2019-03-09T12:55:59.653Z,8336.00
2019-03-09T12:57:52.567Z,7584.00
2019-03-09T12:58:52.577Z,7364.00
2019-03-09T13:00:45.487Z,7352.00
2019-03-09T13:01:45.503Z,6940.00
2019-03-09T13:03:38.421Z,7976.00
2019-03-09T13:04:38.429Z,8888.00
2019-03-09T13:06:31.336Z,9396.00
2019-03-09T13:07:31.351Z,7448.00
2019-03-09T13:09:24.270Z,6564.00
2019-03-09T13:10:24.276Z,6916.00
2019-03-09T13:12:17.193Z,7700.00
2019-03-09T13:13:17.202Z,7624.00
2019-03-09T13:15:10.110Z,7472.00
2019-03-09T13:16:10.130Z,7552.00
2019-03-09T13:18:03.042Z,5040.00
2019-03-09T13:19:03.052Z,4908.00
2019-03-09T13:20:55.962Z,3976.00
2019-03-09T13:21:55.977Z,4344.00
2019-03-09T13:23:48.903Z,3424.00
2019-03-09T13:24:48.903Z,2472.00
2019-03-09T13:26:41.809Z,1524.00
2019-03-09T13:27:41.824Z,1988.00
2019-03-09T13:29:34.732Z,3928.00
2019-03-09T13:30:34.746Z,4228.00
2019-03-09T13:32:27.658Z,4220.00
2019-03-09T13:33:27.666Z,4760.00
2019-03-09T13:35:20.573Z,3632.00
2019-03-09T13:36:20.587Z,4164.00
2019-03-09T13:38:13.499Z,3580.00
2019-03-09T13:39:13.507Z,2916.00
2019-03-09T13:41:06.414Z,3860.00
2019-03-09T13:42:06.431Z,3512.00
2019-03-09T13:43:59.345Z,3188.00
2019-03-09T13:44:59.353Z,2988.00
2019-03-09T13:46:52.262Z,2712.00
2019-03-09T13:47:52.275Z,2940.00
2019-03-09T13:49:45.192Z,2248.00
2019-03-09T13:50:45.197Z,1768.00
2019-03-09T13:52:38.111Z,3024.00
2019-03-09T13:53:38.117Z,2956.00
2019-03-09T13:55:31.022Z,1912.00
2019-03-09T13:56:31.037Z,1488.00
2019-03-09T13:58:23.950Z,1288.00
2019-03-09T13:59:23.956Z,1052.00
2019-03-09T14:01:16.860Z,808.00
2019-03-09T14:02:16.874Z,640.00
2019-03-09T14:04:09.787Z,748.00
2019-03-09T14:05:09.799Z,884.00
2019-03-09T14:07:02.701Z,708.00
2019-03-09T14:08:02.717Z,608.00
2019-03-09T14:09:55.626Z,948.00
2019-03-09T14:10:55.635Z,1376.00
2019-03-09T14:12:48.574Z,2772.00
2019-03-09T14:13:48.577Z,3544.00
2019-03-09T14:15:41.484Z,5288.00
2019-03-09T14:16:41.498Z,6792.00
2019-03-09T14:18:34.415Z,9184.00
2019-03-09T14:19:34.436Z,4320.00
2019-03-09T14:21:27.320Z,2812.00
2019-03-09T14:22:27.334Z,2712.00
2019-03-09T14:24:20.246Z,3108.00
2019-03-09T14:25:20.251Z,3284.00
2019-03-09T14:27:15.128Z,6492.00
2019-03-09T14:28:13.270Z,9108.00
2019-03-09T14:30:06.085Z,6056.00
2019-03-09T14:31:06.082Z,4348.00
2019-03-09T14:32:59.014Z,3336.00
2019-03-09T14:33:59.023Z,3136.00
2019-03-09T14:35:51.961Z,2892.00
2019-03-09T14:36:51.963Z,2844.00
2019-03-09T14:38:44.917Z,2788.00
2019-03-09T14:39:44.932Z,2772.00
2019-03-09T14:41:38.315Z,3188.00
2019-03-09T14:42:38.365Z,3100.00
2019-03-09T14:44:31.241Z,3964.00
2019-03-09T14:45:31.248Z,4332.00
2019-03-09T14:47:24.154Z,8236.00
2019-03-09T14:48:24.165Z,7388.00
2019-03-09T14:50:17.085Z,6900.00
2019-03-09T14:51:17.090Z,6464.00
2019-03-09T14:53:10.030Z,6584.00
2019-03-09T14:54:10.040Z,5864.00
2019-03-09T14:56:02.941Z,5236.00
2019-03-09T14:57:02.957Z,4184.00
2019-03-09T14:58:55.876Z,3380.00
2019-03-09T14:59:55.903Z,4084.00
2019-03-09T15:01:48.810Z,2604.00
2019-03-09T15:02:48.805Z,2308.00
2019-03-09T15:04:41.707Z,2704.00
2019-03-09T15:05:41.741Z,2664.00
2019-03-09T15:07:34.621Z,2540.00
2019-03-09T15:08:34.633Z,2728.00
2019-03-09T15:10:27.603Z,2948.00
2019-03-09T15:11:27.550Z,3048.00
2019-03-09T15:13:20.464Z,2328.00
2019-03-09T15:14:20.471Z,2200.00
2019-03-09T15:16:13.374Z,2496.00
2019-03-09T15:17:13.388Z,2276.00
2019-03-09T15:19:06.304Z,1384.00
2019-03-09T15:20:06.310Z,1176.00
2019-03-09T15:21:59.213Z,896.00
2019-03-09T15:22:59.227Z,556.00
2019-03-09T15:24:52.145Z,592.00
2019-03-09T15:25:52.149Z,580.00
2019-03-09T15:27:45.051Z,336.00
2019-03-09T15:28:45.068Z,240.00
2019-03-09T15:30:37.996Z,196.00
2019-03-09T15:31:37.982Z,212.00
2019-03-09T15:33:30.892Z,236.00
2019-03-09T15:34:30.911Z,336.00
2019-03-09T15:36:23.800Z,348.00
2019-03-09T15:37:23.817Z,344.00
2019-03-09T15:39:16.726Z,428.00
2019-03-09T15:40:17.442Z,420.00
2019-03-09T15:42:09.631Z,348.00
2019-03-09T15:43:09.642Z,344.00
2019-03-09T15:45:02.552Z,468.00
2019-03-09T15:46:02.572Z,588.00
2019-03-09T15:47:55.457Z,676.00
2019-03-09T15:48:55.469Z,500.00
2019-03-09T15:50:48.377Z,436.00
2019-03-09T15:51:48.380Z,460.00
2019-03-09T15:53:41.285Z,404.00
2019-03-09T15:54:41.292Z,388.00
2019-03-09T15:56:34.189Z,400.00
2019-03-09T15:57:34.200Z,440.00
2019-03-09T15:59:27.106Z,376.00
2019-03-09T16:00:27.111Z,364.00
2019-03-09T16:02:20.009Z,380.00
2019-03-09T16:03:20.020Z,432.00
2019-03-09T16:05:12.939Z,492.00
2019-03-09T16:06:12.932Z,636.00
2019-03-09T16:08:05.833Z,976.00
2019-03-09T16:09:05.839Z,1280.00
2019-03-09T16:10:58.751Z,1692.00
2019-03-09T16:11:58.748Z,1624.00
2019-03-09T16:13:51.652Z,2660.00
2019-03-09T16:14:51.654Z,2876.00
2019-03-09T16:16:44.553Z,2352.00
2019-03-09T16:17:44.565Z,2984.00
2019-03-09T16:19:37.470Z,2588.00
2019-03-09T16:20:37.473Z,2316.00
2019-03-09T16:22:30.370Z,2288.00
2019-03-09T16:23:30.382Z,2440.00
2019-03-09T16:25:23.289Z,2100.00
2019-03-09T16:26:23.292Z,1972.00
2019-03-09T16:28:16.191Z,2168.00
2019-03-09T16:29:16.202Z,1964.00
2019-03-09T16:31:09.108Z,1488.00
2019-03-09T16:32:09.111Z,1380.00
2019-03-09T16:34:02.018Z,1288.00
2019-03-09T16:35:02.018Z,1240.00
2019-03-09T16:36:54.917Z,1224.00
2019-03-09T16:37:54.929Z,1200.00
2019-03-09T16:39:47.835Z,1168.00
2019-03-09T16:40:47.837Z,1144.00
2019-03-09T16:42:40.746Z,1128.00
2019-03-09T16:43:40.747Z,1148.00
2019-03-09T16:45:33.654Z,1000.00
2019-03-09T16:46:33.658Z,948.00
2019-03-09T16:48:26.554Z,764.00
2019-03-09T16:49:26.568Z,660.00
2019-03-09T16:51:19.480Z,416.00
2019-03-09T16:52:19.474Z,440.00
2019-03-09T16:54:12.378Z,400.00
2019-03-09T16:55:12.383Z,308.00
2019-03-09T16:57:05.282Z,280.00
2019-03-09T16:58:05.297Z,280.00
2019-03-09T16:59:58.208Z,184.00
2019-03-09T17:00:58.205Z,144.00
2019-03-09T17:02:51.103Z,136.00
2019-03-09T17:03:51.125Z,128.00
2019-03-09T17:05:44.022Z,96.00
2019-03-09T17:06:44.023Z,100.00
2019-03-09T17:08:36.922Z,100.00
2019-03-09T17:09:36.931Z,84.00
2019-03-09T17:11:29.836Z,76.00
2019-03-09T17:12:29.839Z,72.00
2019-03-09T17:14:22.746Z,112.00
2019-03-09T17:15:22.754Z,124.00
2019-03-09T17:17:15.648Z,116.00
2019-03-09T17:18:15.661Z,92.00
2019-03-09T17:20:08.567Z,76.00
2019-03-09T17:21:08.570Z,92.00
2019-03-09T17:23:01.467Z,100.00
2019-03-09T17:24:01.482Z,100.00
2019-03-09T17:25:54.383Z,76.00
2019-03-09T17:26:54.387Z,76.00
2019-03-09T17:28:47.287Z,56.00
2019-03-09T17:29:47.296Z,48.00
2019-03-09T17:31:40.698Z,40.00
2019-03-09T17:32:40.699Z,32.00
2019-03-09T17:34:33.609Z,24.00
2019-03-09T17:35:33.612Z,20.00
2019-03-09T17:37:26.512Z,12.00
2019-03-09T17:38:26.524Z,12.00
2019-03-09T17:40:19.434Z,8.00
2019-03-09T17:41:19.439Z,8.00
2019-03-09T17:43:12.340Z,4.00
2019-03-09T17:44:12.350Z,4.00
2019-03-09T17:46:05.277Z,4.00
2019-03-09T17:47:05.260Z,4.00
2019-03-09T17:48:58.177Z,0.00
2019-03-09T17:49:58.173Z,0.00
2019-03-09T17:51:51.073Z,0.00
2019-03-09T17:52:51.086Z,0.00
2019-03-09T17:54:43.993Z,0.00
2019-03-09T17:55:44.002Z,0.00
2019-03-09T17:57:36.902Z,0.00
2019-03-09T17:58:36.914Z,0.00
2019-03-09T18:00:29.837Z,0.00
2019-03-09T18:01:29.824Z,0.00
2019-03-09T18:03:22.725Z,0.00
2019-03-09T18:04:22.741Z,0.00